sensor_id;sensor_type;location;lat;lon;timestamp;pressure;altitude;pressure_sealevel;temperature;humidity
24440;BME280;12618;54.386;18.394;2023-04-25T00:02:09;98314.47;;;12.03;100.00
24440;BME280;12618;54.386;18.394;2023-04-25T00:04:56;98307.09;;;12.00;100.00
24440;BME280;12618;54.386;18.394;2023-04-25T00:07:34;98306.58;;;12.00;100.00
24440;BME280;12618;54.386;18.394;2023-04-25T00:10:14;98305.61;;;11.99;100.00
24440;BME280;12618;54.386;18.394;2023-04-25T00:12:49;98305.59;;;11.92;100.00
24440;BME280;12618;54.386;18.394;2023-04-25T00:15:42;98311.40;;;11.83;100.00
24440;BME280;12618;54.386;18.394;2023-04-25T00:18:50;98310.70;;;11.79;100.00
24440;BME280;12618;54.386;18.394;2023-04-25T00:21:26;98306.85;;;11.76;100.00
24440;BME280;12618;54.386;18.394;2023-04-25T00:24:04;98305.33;;;11.72;100.00
24440;BME280;12618;54.386;18.394;2023-04-25T00:26:37;98297.22;;;11.72;100.00
24440;BME280;12618;54.386;18.394;2023-04-25T00:29:11;98300.54;;;11.73;100.00
24440;BME280;12618;54.386;18.394;2023-04-25T00:31:44;98295.89;;;11.72;100.00
24440;BME280;12618;54.386;18.394;2023-04-25T00:34:17;98298.48;;;11.70;100.00
24440;BME280;12618;54.386;18.394;2023-04-25T00:36:50;98298.92;;;11.71;100.00
24440;BME280;12618;54.386;18.394;2023-04-25T00:39:24;98297.09;;;11.69;100.00
24440;BME280;12618;54.386;18.394;2023-04-25T00:41:58;98299.07;;;11.71;100.00
24440;BME280;12618;54.386;18.394;2023-04-25T00:44:35;98302.23;;;11.74;100.00
24440;BME280;12618;54.386;18.394;2023-04-25T00:47:11;98301.67;;;11.74;100.00
24440;BME280;12618;54.386;18.394;2023-04-25T00:49:45;98296.69;;;11.75;100.00
24440;BME280;12618;54.386;18.394;2023-04-25T00:52:18;98296.04;;;11.74;100.00
24440;BME280;12618;54.386;18.394;2023-04-25T00:54:54;98295.61;;;11.73;100.00
24440;BME280;12618;54.386;18.394;2023-04-25T00:57:28;98300.04;;;11.75;100.00
24440;BME280;12618;54.386;18.394;2023-04-25T01:00:06;98301.86;;;11.77;100.00
24440;BME280;12618;54.386;18.394;2023-04-25T01:02:38;98307.89;;;11.79;100.00
24440;BME280;12618;54.386;18.394;2023-04-25T01:05:13;98304.93;;;11.78;100.00
24440;BME280;12618;54.386;18.394;2023-04-25T01:07:46;98303.27;;;11.77;100.00
24440;BME280;12618;54.386;18.394;2023-04-25T01:10:31;98302.96;;;11.76;100.00
24440;BME280;12618;54.386;18.394;2023-04-25T01:13:26;98305.89;;;11.79;100.00
24440;BME280;12618;54.386;18.394;2023-04-25T01:16:09;98307.95;;;11.75;100.00
24440;BME280;12618;54.386;18.394;2023-04-25T01:18:59;98308.07;;;11.73;100.00
24440;BME280;12618;54.386;18.394;2023-04-25T01:21:32;98305.20;;;11.72;100.00
24440;BME280;12618;54.386;18.394;2023-04-25T01:24:06;98302.34;;;11.67;100.00
24440;BME280;12618;54.386;18.394;2023-04-25T01:26:41;98302.54;;;11.64;100.00
24440;BME280;12618;54.386;18.394;2023-04-25T01:29:33;98299.24;;;11.61;100.00
24440;BME280;12618;54.386;18.394;2023-04-25T01:32:07;98301.36;;;11.57;100.00
24440;BME280;12618;54.386;18.394;2023-04-25T01:34:42;98301.77;;;11.53;100.00
24440;BME280;12618;54.386;18.394;2023-04-25T01:37:23;98302.45;;;11.51;100.00
24440;BME280;12618;54.386;18.394;2023-04-25T01:40:03;98294.98;;;11.48;100.00
24440;BME280;12618;54.386;18.394;2023-04-25T01:42:40;98297.21;;;11.46;100.00
24440;BME280;12618;54.386;18.394;2023-04-25T01:45:18;98294.22;;;11.46;100.00
24440;BME280;12618;54.386;18.394;2023-04-25T01:47:51;98298.78;;;11.47;100.00
24440;BME280;12618;54.386;18.394;2023-04-25T01:50:25;98299.73;;;11.48;100.00
24440;BME280;12618;54.386;18.394;2023-04-25T01:53:15;98304.40;;;11.47;100.00
24440;BME280;12618;54.386;18.394;2023-04-25T01:55:50;98307.95;;;11.46;100.00
24440;BME280;12618;54.386;18.394;2023-04-25T01:58:50;98311.23;;;11.47;100.00
24440;BME280;12618;54.386;18.394;2023-04-25T02:01:34;98315.03;;;11.43;100.00
24440;BME280;12618;54.386;18.394;2023-04-25T02:04:09;98316.38;;;11.40;100.00
24440;BME280;12618;54.386;18.394;2023-04-25T02:06:46;98317.77;;;11.40;100.00
24440;BME280;12618;54.386;18.394;2023-04-25T02:09:23;98319.41;;;11.41;100.00
24440;BME280;12618;54.386;18.394;2023-04-25T02:11:58;98321.65;;;11.42;100.00
24440;BME280;12618;54.386;18.394;2023-04-25T02:14:30;98316.35;;;11.38;100.00
24440;BME280;12618;54.386;18.394;2023-04-25T02:17:04;98321.34;;;11.37;100.00
24440;BME280;12618;54.386;18.394;2023-04-25T02:19:39;98320.86;;;11.34;100.00
24440;BME280;12618;54.386;18.394;2023-04-25T02:22:11;98317.16;;;11.32;100.00
24440;BME280;12618;54.386;18.394;2023-04-25T02:24:46;98319.34;;;11.31;100.00
24440;BME280;12618;54.386;18.394;2023-04-25T02:27:19;98321.73;;;11.27;100.00
24440;BME280;12618;54.386;18.394;2023-04-25T02:29:53;98319.05;;;11.23;100.00
24440;BME280;12618;54.386;18.394;2023-04-25T02:32:27;98321.18;;;11.22;100.00
24440;BME280;12618;54.386;18.394;2023-04-25T02:35:00;98321.44;;;11.24;100.00
24440;BME280;12618;54.386;18.394;2023-04-25T02:37:37;98323.13;;;11.25;100.00
24440;BME280;12618;54.386;18.394;2023-04-25T02:40:12;98323.38;;;11.24;100.00
24440;BME280;12618;54.386;18.394;2023-04-25T02:42:46;98324.67;;;11.23;100.00
24440;BME280;12618;54.386;18.394;2023-04-25T02:45:20;98325.02;;;11.23;100.00
24440;BME280;12618;54.386;18.394;2023-04-25T02:47:53;98328.19;;;11.25;100.00
24440;BME280;12618;54.386;18.394;2023-04-25T02:50:26;98326.58;;;11.26;100.00
24440;BME280;12618;54.386;18.394;2023-04-25T02:53:00;98322.71;;;11.28;100.00
24440;BME280;12618;54.386;18.394;2023-04-25T02:55:33;98321.42;;;11.28;100.00
24440;BME280;12618;54.386;18.394;2023-04-25T02:58:06;98323.19;;;11.26;100.00
24440;BME280;12618;54.386;18.394;2023-04-25T03:00:41;98321.96;;;11.24;100.00
24440;BME280;12618;54.386;18.394;2023-04-25T03:03:14;98324.83;;;11.23;100.00
24440;BME280;12618;54.386;18.394;2023-04-25T03:05:51;98321.05;;;11.22;100.00
24440;BME280;12618;54.386;18.394;2023-04-25T03:08:26;98321.94;;;11.17;100.00
24440;BME280;12618;54.386;18.394;2023-04-25T03:11:05;98322.35;;;11.11;100.00
24440;BME280;12618;54.386;18.394;2023-04-25T03:13:38;98326.40;;;11.09;100.00
24440;BME280;12618;54.386;18.394;2023-04-25T03:16:11;98328.15;;;11.09;100.00
24440;BME280;12618;54.386;18.394;2023-04-25T03:18:44;98345.09;;;10.93;100.00
24440;BME280;12618;54.386;18.394;2023-04-25T03:21:17;98349.22;;;10.55;100.00
24440;BME280;12618;54.386;18.394;2023-04-25T03:23:50;98351.33;;;10.32;100.00
24440;BME280;12618;54.386;18.394;2023-04-25T03:26:24;98358.34;;;10.14;100.00
24440;BME280;12618;54.386;18.394;2023-04-25T03:28:58;98358.37;;;9.93;100.00
24440;BME280;12618;54.386;18.394;2023-04-25T03:31:31;98361.24;;;9.79;100.00
24440;BME280;12618;54.386;18.394;2023-04-25T03:34:04;98361.83;;;9.59;100.00
24440;BME280;12618;54.386;18.394;2023-04-25T03:36:37;98361.96;;;9.41;100.00
24440;BME280;12618;54.386;18.394;2023-04-25T03:39:15;98363.67;;;9.25;100.00
24440;BME280;12618;54.386;18.394;2023-04-25T03:41:49;98361.66;;;9.16;100.00
24440;BME280;12618;54.386;18.394;2023-04-25T03:44:22;98363.46;;;9.09;100.00
24440;BME280;12618;54.386;18.394;2023-04-25T03:46:57;98364.17;;;9.04;100.00
24440;BME280;12618;54.386;18.394;2023-04-25T03:49:31;98363.63;;;8.96;100.00
24440;BME280;12618;54.386;18.394;2023-04-25T03:52:05;98362.04;;;8.94;100.00
24440;BME280;12618;54.386;18.394;2023-04-25T03:54:42;98363.35;;;8.92;100.00
24440;BME280;12618;54.386;18.394;2023-04-25T03:57:15;98367.38;;;8.95;100.00
24440;BME280;12618;54.386;18.394;2023-04-25T03:59:57;98371.77;;;8.95;100.00
24440;BME280;12618;54.386;18.394;2023-04-25T04:02:34;98374.48;;;8.94;100.00
24440;BME280;12618;54.386;18.394;2023-04-25T04:05:09;98378.06;;;8.95;100.00
24440;BME280;12618;54.386;18.394;2023-04-25T04:07:42;98375.39;;;8.96;100.00
24440;BME280;12618;54.386;18.394;2023-04-25T04:10:16;98375.82;;;8.94;100.00
24440;BME280;12618;54.386;18.394;2023-04-25T04:12:49;98379.08;;;8.93;100.00
24440;BME280;12618;54.386;18.394;2023-04-25T04:15:22;98383.06;;;8.91;100.00
24440;BME280;12618;54.386;18.394;2023-04-25T04:17:57;98384.81;;;8.88;100.00
24440;BME280;12618;54.386;18.394;2023-04-25T04:20:35;98395.66;;;8.86;100.00
24440;BME280;12618;54.386;18.394;2023-04-25T04:23:08;98388.67;;;8.85;100.00
24440;BME280;12618;54.386;18.394;2023-04-25T04:25:42;98393.45;;;8.85;100.00
24440;BME280;12618;54.386;18.394;2023-04-25T04:28:18;98389.90;;;8.88;100.00
24440;BME280;12618;54.386;18.394;2023-04-25T04:30:52;98394.55;;;8.90;100.00
24440;BME280;12618;54.386;18.394;2023-04-25T04:33:25;98386.38;;;8.88;100.00
24440;BME280;12618;54.386;18.394;2023-04-25T04:35:58;98390.67;;;8.87;100.00
24440;BME280;12618;54.386;18.394;2023-04-25T04:38:32;98398.23;;;8.87;100.00
24440;BME280;12618;54.386;18.394;2023-04-25T04:41:11;98403.23;;;8.83;100.00
24440;BME280;12618;54.386;18.394;2023-04-25T04:43:44;98398.65;;;8.80;100.00
24440;BME280;12618;54.386;18.394;2023-04-25T04:46:19;98402.26;;;8.82;100.00
24440;BME280;12618;54.386;18.394;2023-04-25T04:48:55;98401.64;;;8.80;100.00
24440;BME280;12618;54.386;18.394;2023-04-25T04:51:33;98408.52;;;8.76;100.00
24440;BME280;12618;54.386;18.394;2023-04-25T04:54:13;98407.20;;;8.72;100.00
24440;BME280;12618;54.386;18.394;2023-04-25T04:56:53;98409.20;;;8.71;100.00
24440;BME280;12618;54.386;18.394;2023-04-25T04:59:26;98407.52;;;8.70;100.00
24440;BME280;12618;54.386;18.394;2023-04-25T05:01:58;98408.21;;;8.70;100.00
24440;BME280;12618;54.386;18.394;2023-04-25T05:04:31;98405.78;;;8.69;100.00
24440;BME280;12618;54.386;18.394;2023-04-25T05:07:08;98407.09;;;8.71;100.00
24440;BME280;12618;54.386;18.394;2023-04-25T05:09:41;98408.73;;;8.72;100.00
24440;BME280;12618;54.386;18.394;2023-04-25T05:12:15;98405.59;;;8.75;100.00
24440;BME280;12618;54.386;18.394;2023-04-25T05:14:48;98404.59;;;8.83;100.00
24440;BME280;12618;54.386;18.394;2023-04-25T05:17:21;98401.83;;;8.85;100.00
24440;BME280;12618;54.386;18.394;2023-04-25T05:19:58;98405.63;;;8.86;100.00
24440;BME280;12618;54.386;18.394;2023-04-25T05:22:35;98407.66;;;8.87;100.00
24440;BME280;12618;54.386;18.394;2023-04-25T05:25:10;98404.86;;;8.87;100.00
24440;BME280;12618;54.386;18.394;2023-04-25T05:27:43;98408.62;;;8.89;100.00
24440;BME280;12618;54.386;18.394;2023-04-25T05:30:19;98410.20;;;8.89;100.00
24440;BME280;12618;54.386;18.394;2023-04-25T05:32:53;98413.45;;;8.90;100.00
24440;BME280;12618;54.386;18.394;2023-04-25T05:35:26;98418.27;;;8.89;100.00
24440;BME280;12618;54.386;18.394;2023-04-25T05:38:05;98425.77;;;8.81;100.00
24440;BME280;12618;54.386;18.394;2023-04-25T05:40:39;98425.84;;;8.77;100.00
24440;BME280;12618;54.386;18.394;2023-04-25T05:43:12;98429.34;;;8.68;100.00
24440;BME280;12618;54.386;18.394;2023-04-25T05:45:50;98434.52;;;8.58;100.00
24440;BME280;12618;54.386;18.394;2023-04-25T05:48:23;98440.47;;;8.52;100.00
24440;BME280;12618;54.386;18.394;2023-04-25T05:50:57;98440.77;;;8.50;100.00
24440;BME280;12618;54.386;18.394;2023-04-25T05:53:30;98432.39;;;8.47;100.00
24440;BME280;12618;54.386;18.394;2023-04-25T05:56:03;98429.19;;;8.45;100.00
24440;BME280;12618;54.386;18.394;2023-04-25T05:58:36;98428.48;;;8.45;100.00
24440;BME280;12618;54.386;18.394;2023-04-25T06:01:13;98426.89;;;8.42;100.00
24440;BME280;12618;54.386;18.394;2023-04-25T06:03:50;98430.42;;;8.39;100.00
24440;BME280;12618;54.386;18.394;2023-04-25T06:06:32;98435.43;;;8.37;100.00
24440;BME280;12618;54.386;18.394;2023-04-25T06:09:06;98439.55;;;8.36;100.00
24440;BME280;12618;54.386;18.394;2023-04-25T06:11:39;98444.55;;;8.28;100.00
24440;BME280;12618;54.386;18.394;2023-04-25T06:14:15;98445.95;;;8.25;100.00
24440;BME280;12618;54.386;18.394;2023-04-25T06:16:51;98443.76;;;8.20;100.00
24440;BME280;12618;54.386;18.394;2023-04-25T06:19:25;98446.80;;;8.17;100.00
24440;BME280;12618;54.386;18.394;2023-04-25T06:21:58;98449.06;;;8.14;100.00
24440;BME280;12618;54.386;18.394;2023-04-25T06:24:32;98449.83;;;8.16;100.00
24440;BME280;12618;54.386;18.394;2023-04-25T06:27:04;98445.45;;;8.16;100.00
24440;BME280;12618;54.386;18.394;2023-04-25T06:29:38;98447.95;;;8.15;100.00
24440;BME280;12618;54.386;18.394;2023-04-25T06:32:11;98450.55;;;8.18;100.00
24440;BME280;12618;54.386;18.394;2023-04-25T06:34:44;98447.02;;;8.22;100.00
24440;BME280;12618;54.386;18.394;2023-04-25T06:37:18;98446.16;;;8.24;100.00
24440;BME280;12618;54.386;18.394;2023-04-25T06:39:52;98447.85;;;8.28;100.00
24440;BME280;12618;54.386;18.394;2023-04-25T06:42:28;98449.91;;;8.35;100.00
24440;BME280;12618;54.386;18.394;2023-04-25T06:45:02;98451.08;;;8.36;100.00
24440;BME280;12618;54.386;18.394;2023-04-25T06:47:36;98449.55;;;8.39;100.00
24440;BME280;12618;54.386;18.394;2023-04-25T06:50:09;98451.44;;;8.36;100.00
24440;BME280;12618;54.386;18.394;2023-04-25T06:52:43;98454.54;;;8.31;100.00
24440;BME280;12618;54.386;18.394;2023-04-25T06:55:16;98446.86;;;8.27;100.00
24440;BME280;12618;54.386;18.394;2023-04-25T06:57:50;98451.78;;;8.27;100.00
24440;BME280;12618;54.386;18.394;2023-04-25T07:00:23;98450.42;;;8.29;100.00
24440;BME280;12618;54.386;18.394;2023-04-25T07:02:57;98448.22;;;8.31;100.00
24440;BME280;12618;54.386;18.394;2023-04-25T07:05:31;98447.18;;;8.34;100.00
24440;BME280;12618;54.386;18.394;2023-04-25T07:08:04;98450.28;;;8.35;100.00
24440;BME280;12618;54.386;18.394;2023-04-25T07:10:39;98455.13;;;8.42;100.00
24440;BME280;12618;54.386;18.394;2023-04-25T07:13:12;98452.38;;;8.44;100.00
24440;BME280;12618;54.386;18.394;2023-04-25T07:15:46;98453.51;;;8.49;100.00
24440;BME280;12618;54.386;18.394;2023-04-25T07:18:20;98455.30;;;8.56;100.00
24440;BME280;12618;54.386;18.394;2023-04-25T07:20:54;98453.88;;;8.71;100.00
24440;BME280;12618;54.386;18.394;2023-04-25T07:23:27;98459.04;;;8.91;100.00
24440;BME280;12618;54.386;18.394;2023-04-25T07:26:00;98458.41;;;9.34;100.00
24440;BME280;12618;54.386;18.394;2023-04-25T07:28:34;98457.65;;;9.71;100.00
24440;BME280;12618;54.386;18.394;2023-04-25T07:31:10;98458.09;;;10.39;100.00
24440;BME280;12618;54.386;18.394;2023-04-25T07:33:43;98457.02;;;11.06;100.00
24440;BME280;12618;54.386;18.394;2023-04-25T07:36:22;98474.14;;;11.20;100.00
24440;BME280;12618;54.386;18.394;2023-04-25T07:39:08;98469.52;;;11.16;100.00
24440;BME280;12618;54.386;18.394;2023-04-25T07:41:48;98466.04;;;11.10;100.00
24440;BME280;12618;54.386;18.394;2023-04-25T07:44:24;98468.83;;;11.01;100.00
24440;BME280;12618;54.386;18.394;2023-04-25T07:46:58;98468.92;;;10.91;100.00
24440;BME280;12618;54.386;18.394;2023-04-25T07:49:44;98472.23;;;10.92;100.00
24440;BME280;12618;54.386;18.394;2023-04-25T07:52:18;98472.64;;;11.02;100.00
24440;BME280;12618;54.386;18.394;2023-04-25T07:54:55;98475.63;;;11.11;100.00
24440;BME280;12618;54.386;18.394;2023-04-25T07:57:28;98482.83;;;11.59;100.00
24440;BME280;12618;54.386;18.394;2023-04-25T08:00:05;98486.71;;;12.38;99.50
24440;BME280;12618;54.386;18.394;2023-04-25T08:02:44;98487.11;;;12.63;99.82
24440;BME280;12618;54.386;18.394;2023-04-25T08:05:18;98488.42;;;12.49;100.00
24440;BME280;12618;54.386;18.394;2023-04-25T08:07:54;98489.10;;;12.23;99.44
24440;BME280;12618;54.386;18.394;2023-04-25T08:10:28;98493.71;;;11.99;100.00
24440;BME280;12618;54.386;18.394;2023-04-25T08:13:02;98495.47;;;11.69;99.58
24440;BME280;12618;54.386;18.394;2023-04-25T08:15:35;98498.13;;;11.51;99.95
24440;BME280;12618;54.386;18.394;2023-04-25T08:18:09;98498.20;;;11.58;100.00
24440;BME280;12618;54.386;18.394;2023-04-25T08:20:41;98500.14;;;11.90;100.00
24440;BME280;12618;54.386;18.394;2023-04-25T08:23:14;98508.63;;;12.09;99.73
24440;BME280;12618;54.386;18.394;2023-04-25T08:25:47;98508.58;;;12.03;99.62
24440;BME280;12618;54.386;18.394;2023-04-25T08:28:21;98507.67;;;12.36;99.84
24440;BME280;12618;54.386;18.394;2023-04-25T08:30:54;98505.38;;;13.22;99.94
24440;BME280;12618;54.386;18.394;2023-04-25T08:33:27;98511.45;;;13.55;95.51
24440;BME280;12618;54.386;18.394;2023-04-25T08:36:01;98509.33;;;13.23;93.37
24440;BME280;12618;54.386;18.394;2023-04-25T08:38:35;98510.27;;;13.04;97.69
24440;BME280;12618;54.386;18.394;2023-04-25T08:41:11;98511.65;;;13.16;100.00
24440;BME280;12618;54.386;18.394;2023-04-25T08:44:02;98513.95;;;13.25;100.00
24440;BME280;12618;54.386;18.394;2023-04-25T08:46:46;98519.92;;;13.14;99.49
24440;BME280;12618;54.386;18.394;2023-04-25T08:49:22;98527.39;;;12.84;99.22
24440;BME280;12618;54.386;18.394;2023-04-25T08:52:02;98529.99;;;12.40;97.53
24440;BME280;12618;54.386;18.394;2023-04-25T08:54:42;98537.50;;;12.00;97.68
24440;BME280;12618;54.386;18.394;2023-04-25T08:57:18;98542.38;;;11.69;99.08
24440;BME280;12618;54.386;18.394;2023-04-25T09:00:08;98545.95;;;11.55;99.93
24440;BME280;12618;54.386;18.394;2023-04-25T09:02:46;98551.52;;;11.64;100.00
24440;BME280;12618;54.386;18.394;2023-04-25T09:05:21;98558.77;;;11.71;100.00
24440;BME280;12618;54.386;18.394;2023-04-25T09:07:56;98556.04;;;11.70;100.00
24440;BME280;12618;54.386;18.394;2023-04-25T09:10:29;98559.11;;;11.71;100.00
24440;BME280;12618;54.386;18.394;2023-04-25T09:13:13;98563.12;;;11.67;100.00
24440;BME280;12618;54.386;18.394;2023-04-25T09:15:56;98569.39;;;11.53;99.71
24440;BME280;12618;54.386;18.394;2023-04-25T09:18:31;98566.42;;;11.42;100.00
24440;BME280;12618;54.386;18.394;2023-04-25T09:21:09;98568.82;;;11.41;100.00
24440;BME280;12618;54.386;18.394;2023-04-25T09:23:49;98574.44;;;11.41;100.00
24440;BME280;12618;54.386;18.394;2023-04-25T09:26:28;98574.09;;;11.44;100.00
24440;BME280;12618;54.386;18.394;2023-04-25T09:29:08;98572.32;;;11.51;100.00
24440;BME280;12618;54.386;18.394;2023-04-25T09:31:42;98574.20;;;11.70;100.00
24440;BME280;12618;54.386;18.394;2023-04-25T09:34:15;98573.81;;;11.93;100.00
24440;BME280;12618;54.386;18.394;2023-04-25T09:36:49;98573.89;;;12.19;99.98
24440;BME280;12618;54.386;18.394;2023-04-25T09:39:23;98573.89;;;12.35;100.00
24440;BME280;12618;54.386;18.394;2023-04-25T09:41:59;98575.23;;;12.51;100.00
24440;BME280;12618;54.386;18.394;2023-04-25T09:44:33;98571.89;;;12.62;99.47
24440;BME280;12618;54.386;18.394;2023-04-25T09:47:10;98575.13;;;12.64;99.66
24440;BME280;12618;54.386;18.394;2023-04-25T09:49:44;98577.27;;;12.63;100.00
24440;BME280;12618;54.386;18.394;2023-04-25T09:52:19;98580.97;;;12.57;98.43
24440;BME280;12618;54.386;18.394;2023-04-25T09:54:55;98587.75;;;12.36;95.53
24440;BME280;12618;54.386;18.394;2023-04-25T09:57:28;98587.39;;;12.17;98.82
24440;BME280;12618;54.386;18.394;2023-04-25T10:00:05;98595.41;;;12.01;97.89
24440;BME280;12618;54.386;18.394;2023-04-25T10:02:47;98599.23;;;11.80;96.09
24440;BME280;12618;54.386;18.394;2023-04-25T10:05:23;98599.04;;;11.67;98.00
24440;BME280;12618;54.386;18.394;2023-04-25T10:08:00;98601.85;;;11.64;99.93
24440;BME280;12618;54.386;18.394;2023-04-25T10:10:37;98604.57;;;11.61;100.00
24440;BME280;12618;54.386;18.394;2023-04-25T10:13:13;98606.94;;;11.57;99.03
24440;BME280;12618;54.386;18.394;2023-04-25T10:15:57;98610.16;;;11.54;100.00
24440;BME280;12618;54.386;18.394;2023-04-25T10:18:34;98612.82;;;11.54;99.85
24440;BME280;12618;54.386;18.394;2023-04-25T10:21:09;98615.42;;;11.52;100.00
24440;BME280;12618;54.386;18.394;2023-04-25T10:23:48;98614.30;;;11.58;100.00
24440;BME280;12618;54.386;18.394;2023-04-25T10:26:23;98620.25;;;11.63;100.00
24440;BME280;12618;54.386;18.394;2023-04-25T10:28:58;98616.49;;;11.61;100.00
24440;BME280;12618;54.386;18.394;2023-04-25T10:31:32;98617.40;;;11.56;99.93
24440;BME280;12618;54.386;18.394;2023-04-25T10:34:05;98618.40;;;11.60;100.00
24440;BME280;12618;54.386;18.394;2023-04-25T10:36:39;98617.69;;;11.73;100.00
24440;BME280;12618;54.386;18.394;2023-04-25T10:39:12;98619.17;;;11.89;97.71
24440;BME280;12618;54.386;18.394;2023-04-25T10:41:56;98620.51;;;11.98;95.62
24440;BME280;12618;54.386;18.394;2023-04-25T10:44:37;98622.44;;;12.13;96.49
24440;BME280;12618;54.386;18.394;2023-04-25T10:47:11;98625.58;;;12.20;96.74
24440;BME280;12618;54.386;18.394;2023-04-25T10:49:45;98624.85;;;12.25;97.50
24440;BME280;12618;54.386;18.394;2023-04-25T10:52:26;98625.97;;;12.29;98.59
24440;BME280;12618;54.386;18.394;2023-04-25T10:55:03;98624.15;;;12.33;98.49
24440;BME280;12618;54.386;18.394;2023-04-25T10:57:41;98627.55;;;12.39;98.11
24440;BME280;12618;54.386;18.394;2023-04-25T11:00:19;98624.25;;;12.51;99.90
24440;BME280;12618;54.386;18.394;2023-04-25T11:03:02;98625.31;;;12.63;98.86
24440;BME280;12618;54.386;18.394;2023-04-25T11:05:36;98626.84;;;12.59;96.40
24440;BME280;12618;54.386;18.394;2023-04-25T11:08:48;98625.93;;;12.52;95.25
24440;BME280;12618;54.386;18.394;2023-04-25T11:11:25;98633.61;;;12.56;97.32
24440;BME280;12618;54.386;18.394;2023-04-25T11:13:59;98633.05;;;12.54;96.16
24440;BME280;12618;54.386;18.394;2023-04-25T11:16:32;98638.75;;;12.38;95.00
24440;BME280;12618;54.386;18.394;2023-04-25T11:19:05;98640.95;;;12.20;96.07
24440;BME280;12618;54.386;18.394;2023-04-25T11:21:37;98643.20;;;11.96;91.32
24440;BME280;12618;54.386;18.394;2023-04-25T11:24:11;98647.05;;;11.74;92.33
24440;BME280;12618;54.386;18.394;2023-04-25T11:26:46;98648.52;;;11.42;86.79
24440;BME280;12618;54.386;18.394;2023-04-25T11:29:36;98650.48;;;11.21;90.43
24440;BME280;12618;54.386;18.394;2023-04-25T11:32:09;98651.43;;;11.04;90.81
24440;BME280;12618;54.386;18.394;2023-04-25T11:34:43;98654.61;;;10.96;90.34
24440;BME280;12618;54.386;18.394;2023-04-25T11:37:18;98654.42;;;10.96;94.15
24440;BME280;12618;54.386;18.394;2023-04-25T11:40:09;98655.73;;;10.98;95.24
24440;BME280;12618;54.386;18.394;2023-04-25T11:42:47;98654.04;;;10.97;95.26
24440;BME280;12618;54.386;18.394;2023-04-25T11:45:23;98656.37;;;10.93;94.86
24440;BME280;12618;54.386;18.394;2023-04-25T11:47:56;98654.61;;;10.93;96.60
24440;BME280;12618;54.386;18.394;2023-04-25T11:50:29;98656.02;;;10.93;97.51
24440;BME280;12618;54.386;18.394;2023-04-25T11:53:02;98659.98;;;10.94;96.55
24440;BME280;12618;54.386;18.394;2023-04-25T11:55:35;98663.95;;;10.93;95.03
24440;BME280;12618;54.386;18.394;2023-04-25T11:58:09;98662.05;;;10.87;94.94
24440;BME280;12618;54.386;18.394;2023-04-25T12:00:46;98663.16;;;10.86;96.68
24440;BME280;12618;54.386;18.394;2023-04-25T12:03:22;98662.30;;;10.89;96.41
24440;BME280;12618;54.386;18.394;2023-04-25T12:06:05;98662.79;;;10.89;95.61
24440;BME280;12618;54.386;18.394;2023-04-25T12:08:59;98660.27;;;10.90;95.94
24440;BME280;12618;54.386;18.394;2023-04-25T12:12:02;98666.59;;;10.93;96.04
24440;BME280;12618;54.386;18.394;2023-04-25T12:14:51;98666.96;;;11.04;96.98
24440;BME280;12618;54.386;18.394;2023-04-25T12:17:24;98671.84;;;11.13;96.97
24440;BME280;12618;54.386;18.394;2023-04-25T12:20:09;98671.59;;;11.19;97.53
24440;BME280;12618;54.386;18.394;2023-04-25T12:22:48;98668.06;;;11.19;96.14
24440;BME280;12618;54.386;18.394;2023-04-25T12:25:45;98671.51;;;11.23;98.23
24440;BME280;12618;54.386;18.394;2023-04-25T12:28:36;98671.85;;;11.30;98.40
24440;BME280;12618;54.386;18.394;2023-04-25T12:31:14;98678.38;;;11.30;97.47
24440;BME280;12618;54.386;18.394;2023-04-25T12:33:48;98677.47;;;11.28;97.06
24440;BME280;12618;54.386;18.394;2023-04-25T12:36:24;98672.70;;;11.20;96.45
24440;BME280;12618;54.386;18.394;2023-04-25T12:38:58;98673.41;;;11.23;98.86
24440;BME280;12618;54.386;18.394;2023-04-25T12:41:36;98677.11;;;11.31;98.41
24440;BME280;12618;54.386;18.394;2023-04-25T12:44:10;98680.86;;;11.33;97.13
24440;BME280;12618;54.386;18.394;2023-04-25T12:46:43;98680.18;;;11.37;97.25
24440;BME280;12618;54.386;18.394;2023-04-25T12:49:20;98677.96;;;11.44;98.59
24440;BME280;12618;54.386;18.394;2023-04-25T12:51:53;98681.59;;;11.50;98.74
24440;BME280;12618;54.386;18.394;2023-04-25T12:54:26;98678.92;;;11.53;98.44
24440;BME280;12618;54.386;18.394;2023-04-25T12:57:00;98682.69;;;11.55;97.13
24440;BME280;12618;54.386;18.394;2023-04-25T12:59:35;98677.19;;;11.58;97.74
24440;BME280;12618;54.386;18.394;2023-04-25T13:02:17;98674.21;;;11.73;96.82
24440;BME280;12618;54.386;18.394;2023-04-25T13:04:51;98674.80;;;11.85;93.25
24440;BME280;12618;54.386;18.394;2023-04-25T13:07:25;98674.05;;;11.96;94.49
24440;BME280;12618;54.386;18.394;2023-04-25T13:09:58;98674.14;;;12.07;90.79
24440;BME280;12618;54.386;18.394;2023-04-25T13:12:32;98668.73;;;12.28;93.95
24440;BME280;12618;54.386;18.394;2023-04-25T13:15:06;98666.55;;;12.61;95.52
24440;BME280;12618;54.386;18.394;2023-04-25T13:17:50;98673.39;;;12.93;91.13
24440;BME280;12618;54.386;18.394;2023-04-25T13:20:24;98669.61;;;13.05;91.75
24440;BME280;12618;54.386;18.394;2023-04-25T13:22:57;98665.83;;;13.16;91.39
24440;BME280;12618;54.386;18.394;2023-04-25T13:25:33;98666.02;;;13.28;89.50
24440;BME280;12618;54.386;18.394;2023-04-25T13:28:06;98666.79;;;13.36;90.35
24440;BME280;12618;54.386;18.394;2023-04-25T13:30:40;98667.58;;;13.42;87.75
24440;BME280;12618;54.386;18.394;2023-04-25T13:33:16;98669.89;;;13.44;85.88